createdAt,value
2023-03-12T00:01:30.418Z,3.05
2023-03-12T00:03:57.573Z,2.97
2023-03-12T00:06:25.127Z,3.17
2023-03-12T00:08:52.737Z,2.83
2023-03-12T00:11:21.059Z,2.83
2023-03-12T00:13:56.101Z,3.30
2023-03-12T00:16:23.494Z,3.07
2023-03-12T00:18:52.535Z,3.50
2023-03-12T00:21:21.158Z,2.92
2023-03-12T00:23:49.267Z,4.15
2023-03-12T00:26:17.231Z,3.22
2023-03-12T00:28:44.208Z,3.13
2023-03-12T00:31:32.896Z,3.78
2023-03-12T00:34:02.355Z,2.90
2023-03-12T00:36:31.386Z,3.70
2023-03-12T00:38:59.627Z,2.67
2023-03-12T00:41:27.457Z,3.30
2023-03-12T00:43:54.986Z,3.17
2023-03-12T00:46:22.422Z,3.40
2023-03-12T00:48:49.818Z,3.05
2023-03-12T00:51:17.137Z,3.40
2023-03-12T00:53:44.413Z,3.20
2023-03-12T00:56:11.665Z,2.72
2023-03-12T00:58:39.019Z,2.90
2023-03-12T01:01:06.430Z,2.67
2023-03-12T01:03:33.617Z,3.20
2023-03-12T01:06:00.924Z,3.17
2023-03-12T01:08:28.210Z,3.13
2023-03-12T01:10:55.099Z,3.13
2023-03-12T01:13:21.977Z,2.88
2023-03-12T01:15:49.016Z,3.80
2023-03-12T01:18:16.805Z,3.30
2023-03-12T01:20:44.035Z,3.20
2023-03-12T01:23:11.428Z,3.13
2023-03-12T01:25:38.292Z,2.90
2023-03-12T01:28:05.823Z,4.13
2023-03-12T01:30:33.235Z,2.88
2023-03-12T01:33:00.132Z,3.25
2023-03-12T01:35:27.563Z,3.05
2023-03-12T01:37:56.051Z,3.13
2023-03-12T01:40:26.172Z,3.65
2023-03-12T01:42:54.797Z,3.47
2023-03-12T01:45:55.617Z,2.78
2023-03-12T01:48:23.275Z,3.30
2023-03-12T01:50:50.558Z,3.03
2023-03-12T01:53:18.914Z,3.60
2023-03-12T01:55:46.369Z,2.80
2023-03-12T01:58:13.577Z,3.03
2023-03-12T02:00:41.037Z,2.58
2023-03-12T02:03:09.607Z,2.78
2023-03-12T02:06:02.538Z,3.38
2023-03-12T02:08:30.226Z,3.03
2023-03-12T02:10:57.134Z,2.90
2023-03-12T02:13:24.080Z,3.38
2023-03-12T02:15:51.506Z,2.88
2023-03-12T02:18:19.777Z,2.85
2023-03-12T02:20:47.012Z,3.28
2023-03-12T02:23:21.307Z,2.83
2023-03-12T02:25:52.945Z,2.88
2023-03-12T02:28:23.661Z,3.15
2023-03-12T02:30:55.843Z,3.00
2023-03-12T02:33:23.157Z,2.72
2023-03-12T02:35:51.515Z,2.88
2023-03-12T02:38:31.955Z,3.13
2023-03-12T02:41:04.138Z,3.38
2023-03-12T02:43:31.042Z,3.10
2023-03-12T02:45:58.334Z,3.60
2023-03-12T02:48:25.809Z,3.80
2023-03-12T02:50:53.300Z,3.60
2023-03-12T02:53:20.158Z,5.22
2023-03-12T02:55:47.077Z,3.55
2023-03-12T02:58:14.363Z,3.30
2023-03-12T03:00:41.195Z,3.05
2023-03-12T03:03:08.476Z,3.40
2023-03-12T03:05:37.232Z,3.10
2023-03-12T03:08:04.946Z,2.65
2023-03-12T03:10:31.917Z,3.05
2023-03-12T03:12:58.918Z,3.17
2023-03-12T03:15:26.407Z,3.63
2023-03-12T03:17:54.186Z,3.28
2023-03-12T03:20:21.391Z,2.83
2023-03-12T03:22:48.734Z,2.63
2023-03-12T03:25:16.156Z,2.28
2023-03-12T03:27:42.990Z,2.70
2023-03-12T03:30:11.996Z,2.90
2023-03-12T03:32:43.255Z,2.80
2023-03-12T03:35:11.835Z,2.55
2023-03-12T03:37:39.170Z,3.25
2023-03-12T03:40:06.830Z,2.97
2023-03-12T03:42:34.125Z,2.92
2023-03-12T03:45:01.784Z,3.00
2023-03-12T03:47:28.610Z,3.10
2023-03-12T03:49:55.847Z,2.53
2023-03-12T03:52:23.206Z,2.55
2023-03-12T03:54:50.052Z,3.08
2023-03-12T03:57:16.883Z,3.40
2023-03-12T03:59:44.112Z,2.92
2023-03-12T04:02:11.490Z,2.80
2023-03-12T04:04:39.862Z,2.95
2023-03-12T04:07:08.111Z,2.45
2023-03-12T04:09:35.379Z,2.70
2023-03-12T04:12:02.608Z,2.33
2023-03-12T04:14:30.751Z,2.80
2023-03-12T04:16:58.052Z,2.95
2023-03-12T04:19:25.470Z,2.35
2023-03-12T04:21:52.747Z,2.70
2023-03-12T04:24:20.392Z,2.90
2023-03-12T04:26:48.894Z,2.70
2023-03-12T04:29:16.838Z,1.90
2023-03-12T04:31:43.957Z,2.30
2023-03-12T04:34:14.248Z,2.47
2023-03-12T04:36:41.803Z,2.28
2023-03-12T04:39:09.578Z,2.00
2023-03-12T04:41:38.563Z,2.63
2023-03-12T04:44:12.660Z,2.50
2023-03-12T04:46:40.708Z,2.83
2023-03-12T04:49:08.387Z,2.17
2023-03-12T04:51:37.436Z,2.13
2023-03-12T04:54:05.876Z,2.70
2023-03-12T04:56:34.225Z,2.17
2023-03-12T04:59:01.896Z,2.50
2023-03-12T05:01:35.154Z,2.50
2023-03-12T05:04:07.210Z,2.60
2023-03-12T05:06:34.742Z,3.30
2023-03-12T05:09:02.670Z,2.60
2023-03-12T05:11:30.317Z,2.60
2023-03-12T05:13:57.687Z,2.58
2023-03-12T05:16:25.085Z,3.08
2023-03-12T05:18:52.366Z,2.38
2023-03-12T05:21:21.413Z,2.53
2023-03-12T05:23:51.879Z,2.47
2023-03-12T05:26:25.566Z,2.40
2023-03-12T05:28:56.926Z,2.45
2023-03-12T05:31:24.725Z,3.03
2023-03-12T05:33:53.051Z,2.28
2023-03-12T05:36:21.740Z,2.53
2023-03-12T05:38:49.729Z,2.90
2023-03-12T05:41:24.430Z,2.63
2023-03-12T05:43:54.743Z,3.53
2023-03-12T05:46:24.931Z,2.10
2023-03-12T05:48:52.253Z,2.60
2023-03-12T05:51:19.978Z,2.47
2023-03-12T05:53:47.701Z,3.05
2023-03-12T05:56:17.363Z,2.22
2023-03-12T05:58:44.852Z,2.40
2023-03-12T06:01:15.445Z,2.63
2023-03-12T06:03:43.188Z,3.13
2023-03-12T06:06:10.923Z,2.47
2023-03-12T06:08:38.317Z,2.50
2023-03-12T06:11:05.601Z,2.75
2023-03-12T06:13:33.068Z,3.08
2023-03-12T06:16:21.487Z,2.60
2023-03-12T06:18:49.014Z,2.58
2023-03-12T06:21:23.994Z,2.00
2023-03-12T06:23:52.406Z,2.53
2023-03-12T06:26:25.252Z,2.63
2023-03-12T06:28:52.772Z,2.75
2023-03-12T06:31:21.032Z,3.00
2023-03-12T06:33:48.402Z,2.80
2023-03-12T06:36:15.686Z,3.03
2023-03-12T06:38:43.352Z,2.83
2023-03-12T06:41:16.342Z,3.30
2023-03-12T06:43:44.840Z,3.42
2023-03-12T06:46:15.160Z,2.70
2023-03-12T06:48:42.567Z,2.35
2023-03-12T06:51:10.862Z,3.33
2023-03-12T06:53:41.048Z,3.00
2023-03-12T06:56:09.724Z,2.33
2023-03-12T06:58:36.941Z,2.28
2023-03-12T07:01:04.522Z,2.80
2023-03-12T07:03:31.654Z,2.35
2023-03-12T07:05:59.285Z,3.10
2023-03-12T07:08:29.876Z,2.80
2023-03-12T07:11:00.756Z,3.08
2023-03-12T07:13:28.495Z,2.83
2023-03-12T07:15:55.758Z,2.33
2023-03-12T07:18:22.980Z,2.45
2023-03-12T07:20:50.200Z,2.90
2023-03-12T07:23:20.289Z,2.28
2023-03-12T07:25:48.035Z,2.50
2023-03-12T07:28:16.057Z,2.80
2023-03-12T07:30:43.307Z,3.10
2023-03-12T07:33:12.561Z,2.55
2023-03-12T07:35:40.236Z,2.30
2023-03-12T07:38:08.107Z,2.10
2023-03-12T07:40:35.723Z,2.33
2023-03-12T07:43:03.229Z,2.50
2023-03-12T07:45:32.858Z,2.70
2023-03-12T07:48:00.122Z,2.30
2023-03-12T07:50:27.071Z,2.53
2023-03-12T07:52:54.374Z,2.72
2023-03-12T07:55:21.716Z,2.30
2023-03-12T07:57:49.317Z,2.35
2023-03-12T08:00:17.253Z,2.50
2023-03-12T08:02:44.420Z,3.15
2023-03-12T08:05:11.911Z,3.65
2023-03-12T08:07:38.878Z,3.55
2023-03-12T08:10:08.414Z,3.15
2023-03-12T08:12:37.479Z,3.20
2023-03-12T08:15:08.963Z,3.20
2023-03-12T08:17:36.172Z,2.75
2023-03-12T08:20:04.003Z,2.47
2023-03-12T08:22:31.280Z,3.15
2023-03-12T08:24:58.158Z,3.17
2023-03-12T08:27:25.464Z,3.22
2023-03-12T08:29:52.776Z,2.92
2023-03-12T08:32:19.756Z,3.97
2023-03-12T08:34:47.118Z,3.92
2023-03-12T08:37:14.320Z,2.95
2023-03-12T08:39:41.594Z,3.42
2023-03-12T08:42:08.896Z,3.05
2023-03-12T08:44:36.252Z,4.25
2023-03-12T08:47:03.469Z,3.17
2023-03-12T08:49:30.734Z,4.32
2023-03-12T08:51:57.560Z,4.22
2023-03-12T08:54:24.479Z,4.53
2023-03-12T08:56:52.411Z,5.50
2023-03-12T08:59:20.660Z,5.45
2023-03-12T09:01:48.136Z,4.55
2023-03-12T09:04:16.087Z,4.80
2023-03-12T09:06:43.582Z,4.35
2023-03-12T09:09:10.952Z,4.22
2023-03-12T09:11:39.891Z,4.80
2023-03-12T09:16:54.493Z,4.45
2023-03-12T09:19:22.807Z,4.75
2023-03-12T09:21:50.059Z,4.53
2023-03-12T09:24:16.849Z,5.03
2023-03-12T09:26:44.080Z,4.47
2023-03-12T09:29:11.438Z,4.93
2023-03-12T09:31:38.698Z,4.00
2023-03-12T09:34:05.995Z,4.35
2023-03-12T09:36:33.410Z,4.03
2023-03-12T09:39:00.841Z,3.83
2023-03-12T09:41:35.345Z,4.50
2023-03-12T09:44:02.598Z,3.92
2023-03-12T09:46:43.066Z,4.57
2023-03-12T09:49:23.062Z,4.38
2023-03-12T09:51:54.180Z,4.25
2023-03-12T09:54:29.747Z,3.47
2023-03-12T09:57:01.930Z,4.20
2023-03-12T09:59:29.212Z,3.90
2023-03-12T10:02:04.689Z,4.63
2023-03-12T10:04:31.958Z,3.88
2023-03-12T10:07:15.346Z,3.70
2023-03-12T10:10:03.823Z,4.60
2023-03-12T10:12:55.753Z,3.70
2023-03-12T10:15:40.849Z,3.75
2023-03-12T10:18:48.169Z,3.30
2023-03-12T10:21:48.025Z,3.88
2023-03-12T10:24:53.613Z,4.20
2023-03-12T10:27:24.028Z,4.15
2023-03-12T10:29:53.449Z,4.05
2023-03-12T10:32:45.386Z,3.97
2023-03-12T10:35:22.548Z,4.20
2023-03-12T10:37:57.030Z,4.38
2023-03-12T10:40:27.055Z,4.60
2023-03-12T10:42:54.797Z,4.32
2023-03-12T10:45:32.403Z,3.83
2023-03-12T10:48:11.861Z,5.20
2023-03-12T10:50:40.294Z,3.92
2023-03-12T10:53:23.887Z,4.03
2023-03-12T10:56:11.144Z,4.38
2023-03-12T10:58:43.337Z,4.13
2023-03-12T11:01:27.035Z,4.40
2023-03-12T11:04:18.722Z,3.72
2023-03-12T11:07:06.422Z,4.32
2023-03-12T11:09:33.556Z,4.10
2023-03-12T11:12:00.973Z,4.28
2023-03-12T11:14:30.022Z,4.25
2023-03-12T11:16:57.774Z,3.92
2023-03-12T11:19:31.848Z,3.75
2023-03-12T11:22:11.549Z,3.90
2023-03-12T11:25:04.180Z,4.50
2023-03-12T11:27:41.089Z,3.85
2023-03-12T11:30:13.140Z,4.13
2023-03-12T11:32:46.962Z,4.38
2023-03-12T11:35:17.372Z,4.00
2023-03-12T11:37:56.538Z,3.80
2023-03-12T11:41:01.177Z,3.72
2023-03-12T11:43:48.808Z,3.45
2023-03-12T11:46:16.057Z,3.47
2023-03-12T11:48:43.309Z,3.97
2023-03-12T11:51:50.693Z,3.63
2023-03-12T11:54:46.452Z,4.30
2023-03-12T11:57:30.565Z,4.20
2023-03-12T12:00:13.371Z,3.72
2023-03-12T12:03:17.540Z,4.07
2023-03-12T12:05:53.199Z,3.65
2023-03-12T12:09:04.825Z,4.35
2023-03-12T12:11:59.007Z,3.63
2023-03-12T12:14:37.891Z,3.72
2023-03-12T12:17:16.729Z,4.15
2023-03-12T12:20:26.822Z,4.28
2023-03-12T12:23:07.798Z,4.22
2023-03-12T12:25:41.946Z,4.15
2023-03-12T12:28:42.511Z,4.32
2023-03-12T12:31:48.179Z,4.00
2023-03-12T12:34:44.311Z,3.65
2023-03-12T12:37:40.472Z,3.30
2023-03-12T12:40:29.199Z,3.23
2023-03-12T12:43:23.988Z,3.78
2023-03-12T12:45:52.962Z,4.10
2023-03-12T12:48:32.502Z,3.53
2023-03-12T12:51:00.879Z,3.90
2023-03-12T12:53:35.982Z,4.32
2023-03-12T12:56:15.595Z,4.70
2023-03-12T12:58:56.519Z,4.15
2023-03-12T13:01:25.911Z,4.57
2023-03-12T13:04:01.802Z,3.97
2023-03-12T13:06:49.515Z,3.85
2023-03-12T13:09:21.394Z,4.25
2023-03-12T13:11:49.235Z,4.43
2023-03-12T13:14:34.390Z,4.03
2023-03-12T13:17:20.441Z,4.10
2023-03-12T13:19:55.595Z,3.85
2023-03-12T13:22:38.032Z,4.25
2023-03-12T13:25:31.339Z,3.63
2023-03-12T13:28:00.910Z,4.22
2023-03-12T13:30:33.553Z,4.00
2023-03-12T13:33:01.861Z,4.10
2023-03-12T13:35:39.501Z,3.47
2023-03-12T13:38:33.658Z,4.00
2023-03-12T13:41:02.053Z,4.32
2023-03-12T13:43:38.080Z,4.05
2023-03-12T13:48:35.481Z,3.22
2023-03-12T13:51:15.075Z,3.55
2023-03-12T13:53:42.418Z,3.67
2023-03-12T13:56:14.733Z,3.10
2023-03-12T13:58:54.426Z,3.42
2023-03-12T14:01:24.760Z,3.80
2023-03-12T14:04:01.806Z,3.63
2023-03-12T14:06:32.373Z,3.17
2023-03-12T14:09:30.152Z,3.65
2023-03-12T14:12:16.285Z,4.15
2023-03-12T14:15:12.909Z,2.97
2023-03-12T14:17:40.659Z,2.90
2023-03-12T14:20:13.881Z,2.85
2023-03-12T14:22:44.891Z,3.67
2023-03-12T14:25:17.561Z,2.70
2023-03-12T14:27:48.717Z,4.00
2023-03-12T14:30:15.600Z,3.35
2023-03-12T14:32:43.705Z,10.32
2023-03-12T14:35:16.496Z,69.43
2023-03-12T14:37:55.838Z,41.90
2023-03-12T14:40:50.941Z,19.60
2023-03-12T14:43:30.125Z,10.57
2023-03-12T14:45:59.845Z,6.68
2023-03-12T14:48:32.006Z,4.93
2023-03-12T14:51:00.261Z,4.05
2023-03-12T14:53:30.726Z,3.45
2023-03-12T14:56:02.306Z,3.17
2023-03-12T14:58:30.171Z,14.57
2023-03-12T15:01:03.163Z,15.95
2023-03-12T15:03:33.808Z,7.85
2023-03-12T15:06:00.985Z,5.25
2023-03-12T15:08:28.138Z,7.60
2023-03-12T15:10:58.256Z,4.10
2023-03-12T15:13:27.240Z,4.53
2023-03-12T15:15:55.513Z,4.10
2023-03-12T15:18:28.141Z,2.75
2023-03-12T15:20:57.360Z,3.13
2023-03-12T15:23:26.253Z,2.85
2023-03-12T15:26:19.320Z,5.22
2023-03-12T15:29:05.507Z,3.70
2023-03-12T15:31:43.874Z,3.30
2023-03-12T15:34:13.087Z,2.80
2023-03-12T15:36:50.104Z,2.42
2023-03-12T15:39:26.746Z,3.90
2023-03-12T15:41:55.362Z,3.33
2023-03-12T15:44:33.734Z,2.83
2023-03-12T15:47:09.485Z,3.75
2023-03-12T15:49:37.933Z,3.60
2023-03-12T15:52:22.252Z,3.15
2023-03-12T15:55:03.081Z,3.40
2023-03-12T15:57:30.860Z,2.75
2023-03-12T16:00:14.720Z,3.33
2023-03-12T16:03:00.842Z,2.80
2023-03-12T16:05:39.254Z,3.15
2023-03-12T16:08:18.223Z,3.00
2023-03-12T16:10:46.250Z,3.17
2023-03-12T16:13:16.446Z,2.65
2023-03-12T16:15:45.741Z,2.60
2023-03-12T16:18:24.003Z,3.00
2023-03-12T16:20:52.486Z,2.67
2023-03-12T16:23:19.752Z,2.65
2023-03-12T16:25:52.832Z,2.67
2023-03-12T16:28:21.055Z,2.80
2023-03-12T16:30:47.885Z,2.47
2023-03-12T16:33:16.903Z,2.20
2023-03-12T16:35:44.796Z,3.22
2023-03-12T16:38:12.071Z,2.80
2023-03-12T16:40:44.817Z,2.50
2023-03-12T16:43:25.432Z,2.45
2023-03-12T16:45:53.234Z,2.85
2023-03-12T16:48:24.128Z,2.60
2023-03-12T16:50:53.650Z,2.22
2023-03-12T16:53:20.945Z,2.03
2023-03-12T16:55:53.347Z,2.28
2023-03-12T16:58:22.085Z,2.33
2023-03-12T17:00:50.118Z,2.80
2023-03-12T17:03:35.456Z,2.55
2023-03-12T17:06:03.236Z,2.80
2023-03-12T17:08:30.131Z,2.33
2023-03-12T17:10:57.538Z,2.30
2023-03-12T17:13:27.486Z,2.40
2023-03-12T17:15:55.862Z,3.05
2023-03-12T17:18:23.120Z,2.90
2023-03-12T17:20:51.969Z,2.90
2023-03-12T17:23:19.387Z,2.00
2023-03-12T17:25:46.911Z,3.22
2023-03-12T17:28:15.527Z,2.50
2023-03-12T17:30:43.261Z,3.08
2023-03-12T17:33:13.858Z,3.78
2023-03-12T17:35:41.988Z,3.10
2023-03-12T17:38:09.020Z,3.10
2023-03-12T17:40:40.144Z,2.17
2023-03-12T17:43:07.007Z,2.25
2023-03-12T17:45:36.573Z,2.88
2023-03-12T17:48:03.942Z,3.03
2023-03-12T17:50:30.829Z,3.08
2023-03-12T17:52:57.863Z,2.75
2023-03-12T17:55:24.785Z,2.13
2023-03-12T17:57:51.678Z,3.38
2023-03-12T18:00:18.822Z,2.53
2023-03-12T18:02:45.750Z,2.65
2023-03-12T18:05:13.152Z,2.53
2023-03-12T18:07:40.824Z,2.72
2023-03-12T18:10:11.128Z,2.58
2023-03-12T18:12:40.270Z,3.28
2023-03-12T18:15:12.738Z,2.67
2023-03-12T18:17:45.039Z,2.50
2023-03-12T18:20:16.724Z,2.25
2023-03-12T18:22:46.510Z,2.42
2023-03-12T18:25:13.789Z,2.67
2023-03-12T18:27:40.676Z,2.22
2023-03-12T18:30:11.401Z,2.92
2023-03-12T18:32:38.906Z,2.65
2023-03-12T18:35:07.898Z,2.45
2023-03-12T18:37:35.163Z,3.00
2023-03-12T18:40:02.444Z,2.97
2023-03-12T18:42:29.982Z,3.28
2023-03-12T18:44:56.890Z,1.98
2023-03-12T18:47:23.878Z,2.38
2023-03-12T18:49:53.086Z,1.85
2023-03-12T18:52:20.234Z,2.75
2023-03-12T18:54:47.304Z,2.83
2023-03-12T18:57:14.176Z,2.30
2023-03-12T18:59:45.585Z,2.30
2023-03-12T19:02:13.063Z,2.38
2023-03-12T19:04:40.037Z,2.67
2023-03-12T19:07:08.145Z,2.38
2023-03-12T19:09:35.437Z,2.17
2023-03-12T19:12:02.482Z,3.22
2023-03-12T19:14:29.914Z,2.35
2023-03-12T19:16:57.719Z,2.90
2023-03-12T19:19:24.797Z,2.83
2023-03-12T19:21:51.657Z,2.85
2023-03-12T19:24:18.555Z,2.60
2023-03-12T19:26:45.390Z,2.80
2023-03-12T19:29:12.248Z,2.40
2023-03-12T19:31:39.274Z,2.30
2023-03-12T19:34:06.325Z,2.88
2023-03-12T19:36:33.227Z,2.00
2023-03-12T19:39:02.350Z,2.70
2023-03-12T19:41:31.301Z,2.50
2023-03-12T19:43:58.402Z,2.70
2023-03-12T19:46:25.412Z,2.25
2023-03-12T19:48:52.817Z,3.10
2023-03-12T19:51:19.953Z,2.60
2023-03-12T19:53:46.841Z,2.17
2023-03-12T19:56:14.031Z,2.42
2023-03-12T19:58:40.968Z,2.67
2023-03-12T20:01:07.910Z,2.33
2023-03-12T20:03:35.038Z,2.85
2023-03-12T20:06:02.238Z,3.10
2023-03-12T20:08:32.086Z,2.85
2023-03-12T20:11:07.890Z,2.42
2023-03-12T20:13:35.494Z,2.60
2023-03-12T20:16:03.924Z,2.05
2023-03-12T20:18:31.308Z,3.13
2023-03-12T20:20:58.177Z,2.80
2023-03-12T20:23:25.127Z,3.65
2023-03-12T20:25:52.385Z,2.92
2023-03-12T20:28:19.165Z,2.15
2023-03-12T20:30:46.058Z,2.55
2023-03-12T20:33:12.959Z,2.47
2023-03-12T20:35:40.111Z,2.45
2023-03-12T20:38:07.376Z,1.95
2023-03-12T20:40:34.979Z,2.95
2023-03-12T20:43:05.125Z,3.13
2023-03-12T20:45:33.365Z,3.15
2023-03-12T20:48:00.772Z,2.42
2023-03-12T20:50:28.198Z,2.88
2023-03-12T20:52:55.189Z,2.35
2023-03-12T20:55:22.125Z,3.13
2023-03-12T20:57:49.124Z,3.50
2023-03-12T21:00:16.512Z,2.85
2023-03-12T21:02:43.408Z,2.97
2023-03-12T21:05:11.458Z,2.70
2023-03-12T21:07:38.295Z,2.63
2023-03-12T21:10:05.819Z,2.72
2023-03-12T21:12:32.709Z,2.67
2023-03-12T21:15:06.182Z,3.13
2023-03-12T21:17:34.972Z,3.08
2023-03-12T21:20:10.363Z,2.80
2023-03-12T21:22:37.828Z,2.70
2023-03-12T21:25:05.611Z,2.97
2023-03-12T21:27:44.466Z,2.72
2023-03-12T21:30:17.100Z,2.33
2023-03-12T21:32:43.947Z,2.33
2023-03-12T21:35:11.408Z,2.75
2023-03-12T21:37:38.303Z,2.53
2023-03-12T21:40:05.633Z,2.55
2023-03-12T21:42:33.742Z,2.65
2023-03-12T21:45:00.663Z,2.50
2023-03-12T21:47:27.533Z,2.47
2023-03-12T21:49:54.578Z,3.47
2023-03-12T21:52:21.468Z,2.10
2023-03-12T21:54:48.413Z,2.53
2023-03-12T21:57:15.257Z,2.65
2023-03-12T21:59:42.471Z,2.75
2023-03-12T22:02:12.846Z,2.92
2023-03-12T22:04:39.965Z,2.78
2023-03-12T22:07:07.510Z,2.50
2023-03-12T22:09:34.511Z,3.25
2023-03-12T22:12:01.837Z,3.38
2023-03-12T22:14:28.949Z,2.25
2023-03-12T22:16:55.843Z,3.00
2023-03-12T22:19:24.093Z,2.97
2023-03-12T22:21:51.037Z,2.85
2023-03-12T22:24:17.824Z,2.63
2023-03-12T22:26:45.884Z,2.15
2023-03-12T22:29:12.698Z,3.28
2023-03-12T22:31:39.604Z,2.72
2023-03-12T22:34:06.873Z,2.45
2023-03-12T22:36:33.905Z,2.25
2023-03-12T22:39:00.798Z,2.50
2023-03-12T22:41:29.346Z,2.70
2023-03-12T22:44:01.692Z,2.45
2023-03-12T22:46:29.219Z,2.38
2023-03-12T22:48:58.890Z,2.17
2023-03-12T22:51:27.010Z,2.42
2023-03-12T22:53:53.886Z,2.45
2023-03-12T22:56:21.096Z,2.78
2023-03-12T22:58:48.974Z,2.35
2023-03-12T23:01:18.712Z,2.92
2023-03-12T23:03:46.346Z,3.08
2023-03-12T23:06:16.328Z,2.50
2023-03-12T23:08:45.214Z,2.30
2023-03-12T23:11:14.453Z,2.42
2023-03-12T23:13:44.342Z,2.97
2023-03-12T23:16:17.501Z,2.13
2023-03-12T23:18:45.111Z,2.25
2023-03-12T23:21:15.571Z,2.28
2023-03-12T23:23:43.989Z,2.35
2023-03-12T23:26:17.022Z,2.75
2023-03-12T23:28:43.934Z,1.92
2023-03-12T23:31:10.951Z,2.20
2023-03-12T23:33:38.666Z,2.35
2023-03-12T23:36:20.018Z,2.33
2023-03-12T23:38:48.362Z,2.33
2023-03-12T23:41:17.643Z,2.65
2023-03-12T23:43:45.292Z,2.03
2023-03-12T23:46:13.750Z,2.90
2023-03-12T23:48:40.911Z,2.92
2023-03-12T23:51:11.400Z,2.25
2023-03-12T23:53:39.856Z,2.17
2023-03-12T23:56:09.484Z,2.45
2023-03-12T23:58:36.741Z,2.88
